Time;durP1;ratioP1;P1;durP2;ratioP2;P2;SDS_P1;SDS_P2;PMS_P1;PMS_P2;Temp;Humidity;BMP_temperature;BMP_pressure;BME280_temperature;BME280_humidity;BME280_pressure;Samples;Min_cycle;Max_cycle;Signal;HPM_P1;HPM_P2
2023/08/10 00:01:54;;;;;;;4.32;2.05;;;;;;;;;;5018836;28;20131;-72
2023/08/10 00:04:20;;;;;;;7.70;1.98;;;;;;;;;;5000042;28;20050;-73
2023/08/10 00:06:46;;;;;;;6.18;2.00;;;;;;;;;;5021072;28;20062;-73
2023/08/10 00:09:12;;;;;;;6.88;1.83;;;;;;;;;;5022043;28;20064;-73
2023/08/10 00:11:38;;;;;;;1.67;1.58;;;;;;;;;;5006113;28;20046;-73
2023/08/10 00:14:04;;;;;;;6.78;2.15;;;;;;;;;;4998795;28;20129;-73
2023/08/10 00:16:31;;;;;;;2.67;1.80;;;;;;;;;;5013245;28;20042;-72
2023/08/10 00:18:57;;;;;;;6.32;1.90;;;;;;;;;;5001390;28;20485;-73
2023/08/10 00:21:23;;;;;;;6.13;2.15;;;;;;;;;;4997818;28;20042;-72
2023/08/10 00:23:49;;;;;;;5.07;1.90;;;;;;;;;;5000558;28;20442;-72
2023/08/10 00:26:15;;;;;;;3.22;1.80;;;;;;;;;;5007058;28;20552;-72
2023/08/10 00:28:41;;;;;;;3.67;1.85;;;;;;;;;;5008151;28;20088;-73
2023/08/10 00:31:07;;;;;;;4.22;1.80;;;;;;;;;;5020117;28;20065;-72
2023/08/10 00:33:34;;;;;;;5.45;2.22;;;;;;;;;;5013604;28;20187;-72
2023/08/10 00:36:04;;;;;;;2.78;1.77;;;;;;;;;;5027493;28;20529;-72
2023/08/10 00:38:30;;;;;;;3.70;1.90;;;;;;;;;;5007880;28;20140;-73
2023/08/10 00:40:56;;;;;;;5.03;1.75;;;;;;;;;;5026049;28;20037;-72
2023/08/10 00:43:24;;;;;;;6.25;1.80;;;;;;;;;;5027841;28;20053;-72
2023/08/10 00:45:51;;;;;;;2.97;1.92;;;;;;;;;;5026637;28;20077;-72
2023/08/10 00:48:17;;;;;;;1.80;1.65;;;;;;;;;;5026424;28;20046;-72
2023/08/10 00:50:43;;;;;;;2.08;1.73;;;;;;;;;;5005773;28;20046;-72
2023/08/10 00:53:10;;;;;;;5.65;2.05;;;;;;;;;;5005802;28;20041;-72
2023/08/10 00:55:36;;;;;;;3.20;1.80;;;;;;;;;;5016282;28;20037;-73
2023/08/10 00:58:02;;;;;;;5.07;2.00;;;;;;;;;;5026296;28;20072;-72
2023/08/10 01:00:28;;;;;;;4.80;1.83;;;;;;;;;;5000524;28;20492;-72
2023/08/10 01:02:54;;;;;;;3.92;1.90;;;;;;;;;;4996950;28;20057;-73
2023/08/10 01:05:20;;;;;;;5.10;1.80;;;;;;;;;;5009572;28;20173;-72
2023/08/10 01:07:57;;;;;;;6.50;2.10;;;;;;;;;;5020137;28;20042;-73
2023/08/10 01:10:30;;;;;;;6.97;2.28;;;;;;;;;;5009191;28;20050;-72
2023/08/10 01:12:56;;;;;;;6.05;2.00;;;;;;;;;;5008989;28;20514;-72
2023/08/10 01:15:41;;;;;;;4.72;1.90;;;;;;;;;;4999695;28;20045;-72
2023/08/10 01:18:15;;;;;;;5.05;1.83;;;;;;;;;;5029818;28;20042;-72
2023/08/10 01:20:43;;;;;;;4.93;1.75;;;;;;;;;;5009407;28;20485;-72
2023/08/10 01:23:24;;;;;;;4.47;1.75;;;;;;;;;;5021588;28;20121;-73
2023/08/10 01:25:51;;;;;;;4.78;1.70;;;;;;;;;;4991420;28;20050;-73
2023/08/10 01:28:17;;;;;;;5.25;1.90;;;;;;;;;;5009163;28;20115;-73
2023/08/10 01:30:44;;;;;;;3.53;1.88;;;;;;;;;;5001839;28;20049;-73
2023/08/10 01:33:10;;;;;;;4.80;2.05;;;;;;;;;;5008447;28;20053;-72
2023/08/10 01:35:36;;;;;;;3.65;1.60;;;;;;;;;;5000522;28;20085;-73
2023/08/10 01:38:06;;;;;;;5.68;1.98;;;;;;;;;;5002565;28;20057;-73
2023/08/10 01:40:32;;;;;;;5.30;1.75;;;;;;;;;;5028958;28;20060;-73
2023/08/10 01:42:58;;;;;;;3.55;1.70;;;;;;;;;;5002416;28;20128;-72
2023/08/10 01:45:24;;;;;;;4.15;1.90;;;;;;;;;;5019878;28;20046;-73
2023/08/10 01:47:53;;;;;;;4.68;2.00;;;;;;;;;;5010673;28;20049;-73
2023/08/10 01:50:20;;;;;;;5.18;1.80;;;;;;;;;;5010320;28;20096;-72
2023/08/10 01:52:48;;;;;;;5.78;2.00;;;;;;;;;;5013841;28;20049;-73
2023/08/10 01:55:14;;;;;;;2.90;1.90;;;;;;;;;;5013992;28;20045;-73
2023/08/10 01:57:40;;;;;;;5.30;2.05;;;;;;;;;;5026662;28;20057;-73
2023/08/10 02:00:07;;;;;;;4.25;1.95;;;;;;;;;;5025222;28;20041;-73
2023/08/10 02:02:33;;;;;;;3.72;2.00;;;;;;;;;;5010787;28;20041;-73
2023/08/10 02:04:59;;;;;;;3.40;2.00;;;;;;;;;;5019672;28;20137;-73
2023/08/10 02:07:25;;;;;;;4.07;1.90;;;;;;;;;;5027850;28;20120;-73
2023/08/10 02:09:52;;;;;;;3.58;2.10;;;;;;;;;;5019868;28;20100;-73
2023/08/10 02:12:18;;;;;;;7.45;2.13;;;;;;;;;;5023737;28;20046;-73
2023/08/10 02:14:44;;;;;;;8.48;1.88;;;;;;;;;;5012820;28;20049;-73
2023/08/10 02:17:10;;;;;;;2.67;1.80;;;;;;;;;;5011406;28;20466;-73
2023/08/10 02:19:36;;;;;;;3.85;2.00;;;;;;;;;;5028056;28;20396;-73
2023/08/10 02:22:03;;;;;;;7.57;2.00;;;;;;;;;;5024827;28;20045;-73
2023/08/10 02:24:30;;;;;;;3.38;1.70;;;;;;;;;;5030019;28;20091;-73
2023/08/10 02:26:56;;;;;;;3.97;2.00;;;;;;;;;;5016495;28;20132;-72
2023/08/10 02:29:22;;;;;;;3.30;2.10;;;;;;;;;;5027803;28;20438;-73
2023/08/10 02:31:48;;;;;;;3.42;1.90;;;;;;;;;;5022578;28;20041;-73
2023/08/10 02:34:14;;;;;;;5.90;2.10;;;;;;;;;;5013342;28;20061;-73
2023/08/10 02:36:40;;;;;;;5.43;2.00;;;;;;;;;;5012881;28;20551;-73
2023/08/10 02:39:06;;;;;;;3.97;2.08;;;;;;;;;;5008124;28;20178;-73
2023/08/10 02:41:32;;;;;;;7.68;1.92;;;;;;;;;;5027766;28;20045;-73
2023/08/10 02:43:58;;;;;;;5.68;2.05;;;;;;;;;;5030327;28;20046;-73
2023/08/10 02:46:24;;;;;;;6.43;2.03;;;;;;;;;;5026084;28;20052;-73
2023/08/10 02:48:50;;;;;;;5.03;2.33;;;;;;;;;;5021399;28;20045;-73
2023/08/10 02:51:16;;;;;;;3.25;2.05;;;;;;;;;;5026926;28;20045;-73
2023/08/10 02:53:45;;;;;;;7.25;2.53;;;;;;;;;;5026511;28;20037;-73
2023/08/10 02:56:11;;;;;;;4.30;2.33;;;;;;;;;;5055960;27;20047;-73
2023/08/10 02:58:37;;;;;;;5.63;1.92;;;;;;;;;;5050020;27;20046;-73
2023/08/10 03:01:09;;;;;;;3.97;2.00;;;;;;;;;;5052300;28;20445;-73
2023/08/10 03:03:35;;;;;;;5.28;2.20;;;;;;;;;;4992966;28;20073;-73
2023/08/10 03:06:02;;;;;;;4.25;1.88;;;;;;;;;;5011200;28;20046;-73
2023/08/10 03:08:28;;;;;;;4.90;2.10;;;;;;;;;;5027903;28;20052;-73
2023/08/10 03:10:54;;;;;;;4.47;2.08;;;;;;;;;;5029576;28;20049;-73
2023/08/10 03:13:20;;;;;;;8.25;2.33;;;;;;;;;;5113669;27;20186;-73
2023/08/10 03:15:46;;;;;;;4.40;2.00;;;;;;;;;;5052727;28;20400;-73
2023/08/10 03:18:12;;;;;;;2.83;2.28;;;;;;;;;;5026742;28;20049;-72
2023/08/10 03:20:38;;;;;;;8.15;1.95;;;;;;;;;;5007336;28;20136;-73
2023/08/10 03:23:04;;;;;;;4.68;1.98;;;;;;;;;;5010841;28;20128;-73
2023/08/10 03:25:32;;;;;;;3.70;2.10;;;;;;;;;;4993458;28;20133;-72
2023/08/10 03:27:58;;;;;;;5.35;2.00;;;;;;;;;;5001750;28;20038;-73
2023/08/10 03:30:24;;;;;;;6.03;1.80;;;;;;;;;;4999746;28;20398;-73
2023/08/10 03:32:50;;;;;;;4.30;2.00;;;;;;;;;;5011087;28;20056;-73
2023/08/10 03:35:16;;;;;;;2.53;1.80;;;;;;;;;;5011488;28;20046;-73
2023/08/10 03:37:42;;;;;;;4.47;2.05;;;;;;;;;;5030004;28;20147;-73
2023/08/10 03:40:09;;;;;;;3.35;2.20;;;;;;;;;;5014410;28;20409;-73
2023/08/10 03:42:35;;;;;;;6.05;2.28;;;;;;;;;;5009876;28;20038;-72
2023/08/10 03:45:01;;;;;;;4.88;2.38;;;;;;;;;;5005953;28;20069;-73
2023/08/10 03:47:27;;;;;;;4.70;2.15;;;;;;;;;;5026198;28;20094;-73
2023/08/10 03:49:53;;;;;;;6.07;2.10;;;;;;;;;;5008531;28;20058;-72
2023/08/10 03:52:20;;;;;;;3.80;2.20;;;;;;;;;;5014420;28;20307;-73
2023/08/10 03:54:46;;;;;;;7.25;2.45;;;;;;;;;;5002183;28;20121;-73
2023/08/10 03:57:12;;;;;;;8.75;2.20;;;;;;;;;;4996600;28;20140;-72
2023/08/10 03:59:39;;;;;;;7.55;1.95;;;;;;;;;;5021553;28;20050;-72
2023/08/10 04:02:05;;;;;;;5.85;2.17;;;;;;;;;;5083819;27;20045;-73
2023/08/10 04:04:31;;;;;;;6.82;2.35;;;;;;;;;;5068670;27;20069;-73
2023/08/10 04:06:57;;;;;;;7.32;2.25;;;;;;;;;;5061965;27;20047;-73
2023/08/10 04:09:23;;;;;;;3.05;2.13;;;;;;;;;;5109941;27;20100;-72
2023/08/10 04:11:50;;;;;;;5.20;2.20;;;;;;;;;;5109724;27;20114;-72
2023/08/10 04:14:16;;;;;;;6.43;2.00;;;;;;;;;;5040726;27;20089;-72
2023/08/10 04:16:42;;;;;;;5.95;2.50;;;;;;;;;;5008736;28;20037;-73
2023/08/10 04:19:08;;;;;;;4.57;2.00;;;;;;;;;;5029043;28;20109;-73
2023/08/10 04:21:34;;;;;;;3.63;2.10;;;;;;;;;;5016463;28;20042;-73
2023/08/10 04:24:00;;;;;;;6.00;1.95;;;;;;;;;;5026863;28;20083;-73
2023/08/10 04:26:26;;;;;;;8.57;2.30;;;;;;;;;;5028559;28;20045;-73
2023/08/10 04:28:52;;;;;;;4.20;2.17;;;;;;;;;;5006591;28;20051;-72
2023/08/10 04:31:18;;;;;;;5.35;2.10;;;;;;;;;;5007922;28;20125;-72
2023/08/10 04:33:44;;;;;;;5.95;1.92;;;;;;;;;;5009259;28;20046;-72
2023/08/10 04:36:10;;;;;;;4.85;2.00;;;;;;;;;;5010202;28;20389;-72
2023/08/10 04:38:36;;;;;;;8.23;2.33;;;;;;;;;;5021277;28;20407;-72
2023/08/10 04:41:02;;;;;;;5.22;2.10;;;;;;;;;;5029221;28;20407;-72
2023/08/10 04:43:28;;;;;;;5.93;2.28;;;;;;;;;;5011506;28;20049;-72
2023/08/10 04:45:55;;;;;;;6.00;2.20;;;;;;;;;;5027149;28;20049;-72
2023/08/10 04:48:21;;;;;;;7.22;2.40;;;;;;;;;;5011593;28;20175;-72
2023/08/10 04:50:47;;;;;;;5.85;2.15;;;;;;;;;;5011446;28;20049;-72
2023/08/10 04:53:13;;;;;;;3.90;2.08;;;;;;;;;;5028039;28;20061;-72
2023/08/10 04:55:39;;;;;;;6.93;2.38;;;;;;;;;;5020873;28;20451;-72
2023/08/10 04:58:05;;;;;;;2.47;2.10;;;;;;;;;;4992015;28;20072;-72
2023/08/10 05:00:31;;;;;;;5.25;2.25;;;;;;;;;;4991799;28;20476;-72
2023/08/10 05:02:58;;;;;;;5.45;2.25;;;;;;;;;;5010290;28;20124;-72
2023/08/10 05:05:24;;;;;;;7.90;2.30;;;;;;;;;;5028980;28;20137;-72
2023/08/10 05:07:50;;;;;;;5.50;2.22;;;;;;;;;;5009674;28;20042;-72
2023/08/10 05:10:16;;;;;;;6.00;2.20;;;;;;;;;;5009194;28;20046;-72
2023/08/10 05:12:42;;;;;;;5.35;2.20;;;;;;;;;;4995211;28;20046;-72
2023/08/10 05:15:09;;;;;;;6.35;2.67;;;;;;;;;;5028285;28;20049;-72
2023/08/10 05:17:37;;;;;;;4.90;2.03;;;;;;;;;;5028755;28;20392;-72
2023/08/10 05:20:10;;;;;;;3.88;2.10;;;;;;;;;;5014693;28;20111;-72
2023/08/10 05:22:36;;;;;;;6.43;2.10;;;;;;;;;;5008402;28;20053;-72
2023/08/10 05:25:02;;;;;;;4.32;2.08;;;;;;;;;;5009417;28;20071;-71
2023/08/10 05:27:28;;;;;;;5.53;2.45;;;;;;;;;;5012179;28;20037;-71
2023/08/10 05:29:54;;;;;;;5.90;2.40;;;;;;;;;;5008598;28;20052;-72
2023/08/10 05:32:20;;;;;;;3.22;2.22;;;;;;;;;;5013524;28;20392;-71
2023/08/10 05:34:48;;;;;;;7.75;2.70;;;;;;;;;;4990840;28;20046;-72
2023/08/10 05:37:14;;;;;;;4.10;2.38;;;;;;;;;;4991805;28;20126;-72
2023/08/10 05:39:40;;;;;;;5.32;2.40;;;;;;;;;;5008693;28;20045;-72
2023/08/10 05:42:06;;;;;;;5.47;2.33;;;;;;;;;;4999300;28;20045;-72
2023/08/10 05:44:32;;;;;;;7.03;2.90;;;;;;;;;;5032406;28;20041;-72
2023/08/10 05:46:58;;;;;;;6.68;3.25;;;;;;;;;;5014386;28;20084;-72
2023/08/10 05:49:24;;;;;;;6.63;3.00;;;;;;;;;;4994953;28;20085;-72
2023/08/10 05:51:50;;;;;;;6.05;3.10;;;;;;;;;;5012477;28;20065;-72
2023/08/10 05:54:16;;;;;;;5.78;2.70;;;;;;;;;;5009281;28;20480;-71
2023/08/10 05:56:42;;;;;;;5.65;2.78;;;;;;;;;;5030849;28;20049;-72
2023/08/10 05:59:08;;;;;;;7.45;2.80;;;;;;;;;;5000272;28;20370;-71
2023/08/10 06:01:34;;;;;;;5.93;2.47;;;;;;;;;;5011843;28;20057;-72
2023/08/10 06:04:02;;;;;;;6.53;2.80;;;;;;;;;;5010868;28;20417;-72
2023/08/10 06:06:29;;;;;;;3.40;2.40;;;;;;;;;;5029045;28;20041;-72
2023/08/10 06:08:55;;;;;;;3.58;2.60;;;;;;;;;;5013658;28;20049;-72
2023/08/10 06:11:21;;;;;;;4.97;2.13;;;;;;;;;;5030987;28;20045;-72
2023/08/10 06:13:47;;;;;;;4.35;2.20;;;;;;;;;;5013884;28;20110;-72
2023/08/10 06:16:13;;;;;;;4.32;2.38;;;;;;;;;;5031107;28;20084;-71
2023/08/10 06:18:39;;;;;;;5.10;2.10;;;;;;;;;;5030766;28;20114;-72
2023/08/10 06:21:06;;;;;;;5.70;2.20;;;;;;;;;;5025696;28;20038;-71
2023/08/10 06:23:33;;;;;;;7.38;2.30;;;;;;;;;;5014252;28;20049;-71
2023/08/10 06:26:00;;;;;;;9.20;2.20;;;;;;;;;;5012730;28;20099;-71
2023/08/10 06:28:27;;;;;;;5.65;2.05;;;;;;;;;;5030642;28;20132;-71
2023/08/10 06:30:53;;;;;;;6.88;2.22;;;;;;;;;;5013059;28;20056;-71
2023/08/10 06:33:19;;;;;;;4.25;2.17;;;;;;;;;;5013747;28;20492;-71
2023/08/10 06:35:45;;;;;;;6.72;4.10;;;;;;;;;;5030764;28;20580;-71
2023/08/10 06:38:11;;;;;;;8.95;4.88;;;;;;;;;;5028473;28;20050;-71
2023/08/10 06:40:38;;;;;;;4.10;2.60;;;;;;;;;;5031289;28;20046;-71
2023/08/10 06:43:04;;;;;;;4.57;2.70;;;;;;;;;;5013423;28;20057;-71
2023/08/10 06:45:30;;;;;;;4.90;2.90;;;;;;;;;;5029504;28;20049;-71
2023/08/10 06:47:56;;;;;;;5.32;2.88;;;;;;;;;;5011409;28;20042;-71
2023/08/10 06:50:23;;;;;;;7.53;2.83;;;;;;;;;;5018336;28;20049;-71
2023/08/10 06:52:49;;;;;;;3.80;2.05;;;;;;;;;;5003780;28;20038;-71
2023/08/10 06:55:15;;;;;;;2.38;1.95;;;;;;;;;;4993887;28;20050;-71
2023/08/10 06:57:41;;;;;;;2.65;2.00;;;;;;;;;;5023046;28;20080;-71
2023/08/10 07:00:12;;;;;;;4.35;2.00;;;;;;;;;;5030233;28;20057;-71
2023/08/10 07:02:38;;;;;;;4.00;2.00;;;;;;;;;;5029390;28;20053;-71
2023/08/10 07:05:04;;;;;;;4.65;1.95;;;;;;;;;;5030570;28;20069;-72
2023/08/10 07:07:30;;;;;;;5.25;1.88;;;;;;;;;;5029950;28;20128;-71
2023/08/10 07:09:56;;;;;;;3.92;2.08;;;;;;;;;;5029346;28;20133;-71
2023/08/10 07:12:22;;;;;;;7.50;2.33;;;;;;;;;;4996224;28;20493;-71
2023/08/10 07:14:48;;;;;;;3.60;2.00;;;;;;;;;;4992569;28;20149;-71
2023/08/10 07:17:14;;;;;;;3.10;2.10;;;;;;;;;;4993320;28;20079;-71
2023/08/10 07:19:40;;;;;;;5.65;2.28;;;;;;;;;;5030431;28;20115;-71
2023/08/10 07:22:06;;;;;;;4.35;2.00;;;;;;;;;;5030084;28;20053;-72
2023/08/10 07:24:32;;;;;;;5.28;2.10;;;;;;;;;;5007417;28;20066;-72
2023/08/10 07:26:58;;;;;;;6.05;2.33;;;18.60;99.90;;;;;;5015838;28;20041;-72
2023/08/10 07:29:24;;;;;;;5.70;2.00;;;18.40;99.90;;;;;;5030015;28;20041;-72
2023/08/10 07:31:50;;;;;;;3.53;1.85;;;18.20;99.90;;;;;;5009060;28;20046;-71
2023/08/10 07:34:16;;;;;;;4.35;3.60;;;18.40;99.90;;;;;;5028687;28;20197;-71
2023/08/10 07:36:41;;;;;;;13.68;8.57;;;18.40;99.90;;;;;;4998502;28;20046;-72
2023/08/10 07:39:07;;;;;;;5.50;2.22;;;18.40;99.90;;;;;;5010228;28;20099;-72
2023/08/10 07:41:33;;;;;;;4.60;2.00;;;18.50;99.90;;;;;;5001746;28;20420;-72
2023/08/10 07:43:58;;;;;;;3.05;1.70;;;18.40;99.90;;;;;;5012505;28;20042;-72
2023/08/10 07:46:26;;;;;;;2.22;1.90;;;18.50;99.90;;;;;;5029371;28;20102;-72
2023/08/10 07:48:52;;;;;;;2.80;1.85;;;18.40;99.90;;;;;;5011322;28;20102;-72
2023/08/10 07:51:17;;;;;;;3.55;1.80;;;18.60;99.90;;;;;;5011297;28;20049;-72
2023/08/10 07:53:43;;;;;;;4.05;2.20;;;18.50;99.90;;;;;;5026909;28;20094;-72
2023/08/10 07:56:11;;;;;;;5.50;2.20;;;18.50;99.90;;;;;;5010110;28;20046;-72
2023/08/10 07:58:37;;;;;;;4.63;2.10;;;18.60;99.90;;;;;;5024112;28;20054;-72
2023/08/10 08:01:05;;;;;;;7.53;2.35;;;18.60;99.90;;;;;;5009621;28;20049;-72
2023/08/10 08:03:31;;;;;;;4.47;1.92;;;18.60;99.90;;;;;;5008841;28;20068;-72
2023/08/10 08:05:57;;;;;;;4.97;2.10;;;18.60;99.90;;;;;;4994720;28;20046;-71
2023/08/10 08:08:22;;;;;;;6.38;2.28;;;18.60;99.90;;;;;;5012455;28;20193;-72
2023/08/10 08:10:48;;;;;;;6.07;1.80;;;18.70;99.90;;;;;;5027527;28;20049;-72
2023/08/10 08:13:14;;;;;;;3.95;1.98;;;18.60;99.90;;;;;;4996750;28;20686;-72
2023/08/10 08:15:40;;;;;;;3.38;2.00;;;18.70;99.90;;;;;;5022081;28;20086;-72
2023/08/10 08:18:43;;;;;;;4.70;2.13;;;18.80;99.90;;;;;;5010230;28;20127;-72
2023/08/10 08:21:20;;;;;;;4.85;2.15;;;18.70;99.90;;;;;;5010497;28;20057;-72
2023/08/10 08:23:46;;;;;;;5.18;2.33;;;19.00;99.90;;;;;;4991836;28;20049;-72
2023/08/10 08:26:14;;;;;;;4.93;1.90;;;19.00;99.90;;;;;;5015903;28;20049;-72
2023/08/10 08:28:40;;;;;;;6.30;2.20;;;19.20;99.90;;;;;;5029588;28;20132;-72
2023/08/10 08:31:06;;;;;;;6.07;2.03;;;19.10;99.90;;;;;;5025329;28;20056;-71
2023/08/10 08:33:33;;;;;;;3.20;2.08;;;19.10;99.90;;;;;;5023896;28;20034;-72
2023/08/10 08:35:59;;;;;;;5.53;2.03;;;19.40;99.90;;;;;;5011847;28;20054;-72
2023/08/10 08:38:25;;;;;;;4.40;1.90;;;19.20;99.90;;;;;;5025811;28;20065;-72
2023/08/10 08:40:52;;;;;;;4.40;1.88;;;19.20;99.90;;;;;;5027891;28;20045;-71
2023/08/10 08:43:18;;;;;;;3.05;1.95;;;19.10;99.90;;;;;;5029722;28;20049;-72
2023/08/10 08:45:44;;;;;;;4.22;1.90;;;19.20;99.90;;;;;;5027123;28;20034;-72
2023/08/10 08:48:14;;;;;;;6.55;2.35;;;19.20;99.90;;;;;;5027691;28;20048;-72
2023/08/10 08:50:40;;;;;;;3.50;2.10;;;19.20;99.90;;;;;;5028953;28;20106;-72
2023/08/10 08:53:08;;;;;;;5.13;2.38;;;19.40;99.90;;;;;;5020741;28;20076;-72
2023/08/10 08:55:34;;;;;;;5.60;2.10;;;19.50;99.90;;;;;;5009505;28;20475;-72
2023/08/10 08:58:00;;;;;;;2.17;1.83;;;19.40;99.90;;;;;;5014822;28;20057;-72
2023/08/10 09:00:26;;;;;;;2.38;1.90;;;19.60;99.90;;;;;;5028181;28;20388;-71
2023/08/10 09:02:52;;;;;;;3.70;2.00;;;19.80;99.90;;;;;;5027896;28;20038;-70
2023/08/10 09:05:18;;;;;;;5.15;2.45;;;19.80;99.90;;;;;;5027790;28;20072;-70
2023/08/10 09:07:45;;;;;;;3.17;2.10;;;19.80;99.90;;;;;;5028680;28;20124;-70
2023/08/10 09:10:11;;;;;;;3.50;2.30;;;19.80;99.90;;;;;;5029398;28;20103;-70
2023/08/10 09:12:39;;;;;;;3.30;2.00;;;19.90;99.90;;;;;;5007623;28;20049;-70
2023/08/10 09:15:13;;;;;;;6.55;2.50;;;19.90;99.90;;;;;;5029561;28;20056;-70
2023/08/10 09:17:52;;;;;;;6.88;2.60;;;20.00;99.90;;;;;;5032249;28;20053;-70
2023/08/10 09:20:25;;;;;;;3.30;2.40;;;20.10;99.90;;;;;;5025879;28;20637;-70
2023/08/10 09:22:52;;;;;;;4.03;2.42;;;20.10;99.90;;;;;;5021692;28;20496;-70
2023/08/10 09:25:19;;;;;;;6.13;3.40;;;20.10;99.90;;;;;;5013251;28;20056;-70
2023/08/10 09:27:47;;;;;;;3.20;2.63;;;20.40;99.90;;;;;;5031336;28;20049;-70
2023/08/10 09:30:13;;;;;;;13.80;10.57;;;20.50;99.90;;;;;;5030292;28;20049;-70
2023/08/10 09:32:39;;;;;;;8.32;4.35;;;;;;;;;;5013888;28;20045;-70
2023/08/10 09:35:11;;;;;;;4.65;3.28;;;21.30;99.90;;;;;;5026953;28;20144;-70
2023/08/10 09:37:36;;;;;;;6.75;3.70;;;20.30;99.90;;;;;;5014485;28;20394;-70
2023/08/10 09:40:07;;;;;;;7.35;3.53;;;;;;;;;;5031716;28;20041;-70
2023/08/10 09:42:34;;;;;;;6.53;4.03;;;;;;;;;;5029944;28;20061;-70
2023/08/10 09:45:05;;;;;;;7.13;3.80;;;;;;;;;;5032048;28;20080;-70
2023/08/10 09:47:34;;;;;;;5.45;3.88;;;;;;;;;;5013702;28;20041;-70
2023/08/10 09:50:02;;;;;;;6.07;3.90;;;;;;;;;;5022630;28;20412;-71
2023/08/10 09:52:28;;;;;;;8.35;3.95;;;;;;;;;;5032198;28;20046;-71
2023/08/10 09:54:56;;;;;;;6.60;4.10;;;;;;;;;;5026104;28;20081;-71
2023/08/10 09:57:22;;;;;;;5.75;4.00;;;;;;;;;;5031382;28;20045;-71
2023/08/10 09:59:49;;;;;;;5.45;3.70;;;;;;;;;;5031626;28;20059;-71
2023/08/10 10:02:16;;;;;;;7.13;3.92;;;;;;;;;;5031266;28;20492;-71
2023/08/10 10:04:43;;;;;;;6.10;3.58;;;;;;;;;;5001766;28;20065;-71
2023/08/10 10:07:11;;;;;;;6.82;3.92;;;;;;;;;;5016132;28;20125;-71
2023/08/10 10:09:38;;;;;;;7.72;3.67;;;;;;;;;;5028448;28;20396;-71
2023/08/10 10:12:06;;;;;;;6.30;3.60;;;;;;;;;;5030750;28;20042;-71
2023/08/10 10:14:33;;;;;;;5.05;3.50;;;;;;;;;;5012929;28;20552;-71
2023/08/10 10:16:59;;;;;;;4.13;2.88;;;;;;;;;;5031163;28;20086;-71
2023/08/10 10:19:26;;;;;;;4.97;3.75;;;;;;;;;;5012693;28;20049;-71
2023/08/10 10:21:52;;;;;;;7.82;3.40;;;;;;;;;;5008792;28;20038;-71
2023/08/10 10:24:19;;;;;;;5.78;3.25;;;;;;;;;;5010852;28;20056;-71
2023/08/10 10:26:58;;;;;;;5.38;3.78;;;;;;;;;;4993345;28;20057;-71
2023/08/10 10:29:35;;;;;;;7.75;4.03;;;;;;;;;;4994122;28;20049;-71
2023/08/10 10:32:05;;;;;;;9.75;3.85;;;;;;;;;;5030831;28;20052;-71
2023/08/10 10:34:33;;;;;;;6.18;3.50;;;;;;;;;;5031214;28;20045;-71
2023/08/10 10:37:18;;;;;;;5.60;4.07;;;;;;;;;;5029827;28;20042;-72
2023/08/10 10:39:45;;;;;;;10.10;4.43;;;;;;;;;;5019523;28;20056;-71
2023/08/10 10:42:11;;;;;;;7.32;4.45;;;;;;;;;;4993698;28;20057;-71
2023/08/10 10:44:56;;;;;;;9.30;4.75;;;;;;;;;;4992918;28;20498;-71
2023/08/10 10:47:32;;;;;;;6.68;4.60;;;;;;;;;;5011405;28;20486;-71
2023/08/10 10:49:58;;;;;;;8.60;4.75;;;;;;;;;;5026204;28;20049;-71
2023/08/10 10:52:36;;;;;;;8.13;5.05;;;;;;;;;;5029043;28;20428;-71
2023/08/10 10:55:06;;;;;;;7.13;4.78;;;;;;;;;;5031245;28;20162;-71
2023/08/10 10:57:32;;;;;;;6.50;4.45;;;;;;;;;;5030307;28;20098;-71
2023/08/10 10:59:58;;;;;;;11.45;4.78;;;;;;;;;;5029986;28;20385;-71
2023/08/10 11:02:24;;;;;;;8.05;4.40;;;;;;;;;;5030643;28;20060;-71
2023/08/10 11:04:52;;;;;;;7.50;4.30;;;;;;;;;;5012499;28;20061;-71
2023/08/10 11:07:18;;;;;;;7.25;4.97;;;;;;;;;;5001918;28;20054;-71
2023/08/10 11:09:44;;;;;;;9.20;5.28;;;;;;;;;;5026320;28;20049;-72
2023/08/10 11:12:11;;;;;;;6.65;4.60;;;;;;;;;;5013226;28;20057;-71
2023/08/10 11:14:39;;;;;;;9.38;4.95;;;;;;;;;;5011814;28;20111;-71
2023/08/10 11:17:05;;;;;;;7.60;5.15;;;;;;;;;;5030557;28;20041;-71
2023/08/10 11:19:33;;;;;;;6.78;5.13;;;;;;;;;;5012259;28;20056;-71
2023/08/10 11:21:59;;;;;;;10.43;5.07;;;;;;;;;;5029815;28;20110;-71
2023/08/10 11:24:28;;;;;;;6.78;4.65;;;;;;;;;;5029698;28;20048;-71
2023/08/10 11:26:54;;;;;;;7.63;5.22;;;;;;;;;;5003545;28;20045;-71
2023/08/10 11:29:20;;;;;;;10.38;5.60;;;;;;;;;;5010367;28;20045;-71
2023/08/10 11:31:47;;;;;;;7.45;5.82;;;;;;;;;;5010219;28;20370;-72
2023/08/10 11:34:23;;;;;;;7.68;5.30;;;;;;;;;;5010101;28;20107;-71
2023/08/10 11:36:50;;;;;;;9.20;4.80;;;;;;;;;;5025252;28;20434;-71
2023/08/10 11:39:16;;;;;;;9.20;4.75;;;;;;;;;;5011276;28;20095;-71
2023/08/10 11:41:43;;;;;;;10.98;5.65;;;;;;;;;;5010134;28;20090;-71
2023/08/10 11:44:09;;;;;;;8.75;5.55;;;;;;;;;;5030141;28;20052;-70
2023/08/10 11:46:35;;;;;;;10.65;6.13;;;;;;;;;;5012356;28;20090;-70
2023/08/10 11:49:01;;;;;;;7.55;6.22;;;;;;;;;;5010822;28;20045;-70
2023/08/10 11:51:34;;;;;;;9.10;5.97;;;;;;;;;;5012374;28;20038;-70
2023/08/10 11:54:09;;;;;;;9.25;6.85;;;;;;;;;;5012758;28;20392;-70
2023/08/10 11:56:46;;;;;;;11.90;6.00;;;;;;;;;;5006524;28;20370;-70
2023/08/10 11:59:14;;;;;;;8.20;5.82;;;;;;;;;;5012319;28;20064;-70
2023/08/10 12:01:53;;;;;;;9.43;6.32;;;;;;;;;;5027460;28;20738;-71
2023/08/10 12:04:19;;;;;;;10.02;6.85;;;;;;;;;;5012304;28;20389;-70
2023/08/10 12:06:45;;;;;;;9.00;6.13;;;;;;;;;;5030037;28;20049;-71
2023/08/10 12:09:12;;;;;;;10.48;6.15;;;;;;;;;;5025938;28;20050;-71
2023/08/10 12:11:46;;;;;;;10.75;6.22;;;;;;;;;;5013302;28;20058;-70
2023/08/10 12:14:12;;;;;;;11.10;7.00;;;;;;;;;;5007982;28;20508;-71
2023/08/10 12:16:38;;;;;;;11.45;6.95;;;;;;;;;;5026629;28;20049;-71
2023/08/10 12:19:05;;;;;;;10.20;7.05;;;;;;;;;;5012278;28;20126;-70
2023/08/10 12:21:31;;;;;;;9.77;7.57;;;;;;;;;;4992051;28;20171;-70
2023/08/10 12:23:57;;;;;;;13.25;7.43;;;;;;;;;;4991470;28;20598;-70
2023/08/10 12:26:24;;;;;;;11.63;6.63;;;;;;;;;;5019118;28;20045;-70
2023/08/10 12:28:51;;;;;;;11.27;6.78;;;;;;;;;;5029356;28;20056;-70
2023/08/10 12:31:17;;;;;;;10.90;7.20;;;;;;;;;;5027978;28;20124;-70
2023/08/10 12:33:44;;;;;;;9.98;8.15;;;;;;;;;;5011533;28;20496;-70
2023/08/10 12:36:10;;;;;;;9.93;6.85;;;;;;;;;;5010764;28;20117;-70
2023/08/10 12:38:36;;;;;;;10.38;6.78;;;;;;;;;;5028614;28;20045;-71
2023/08/10 12:41:02;;;;;;;10.88;6.95;;;;;;;;;;5000625;28;20046;-71
2023/08/10 12:43:29;;;;;;;10.88;7.10;;;;;;;;;;5024743;28;20042;-71
2023/08/10 12:45:55;;;;;;;10.95;7.15;;;;;;;;;;5027191;28;20049;-71
2023/08/10 12:48:20;;;;;;;9.13;6.57;;;;;;;;;;5011764;28;20053;-70
2023/08/10 12:50:46;;;;;;;9.32;6.75;;;;;;;;;;5027650;28;20102;-71
2023/08/10 12:53:12;;;;;;;11.48;6.40;;;;;;;;;;5027850;28;20095;-71
2023/08/10 12:55:39;;;;;;;10.40;5.82;;;;;;;;;;4991740;28;20057;-71
2023/08/10 12:58:04;;;;;;;8.45;5.80;;;;;;;;;;4990515;28;20132;-70
2023/08/10 13:00:31;;;;;;;7.10;4.97;;;;;;;;;;5028176;28;20207;-70
2023/08/10 13:02:57;;;;;;;9.98;5.60;;;;;;;;;;5011036;28;20500;-70
2023/08/10 13:05:23;;;;;;;6.70;4.85;;;;;;;;;;5010445;28;20137;-70
2023/08/10 13:07:49;;;;;;;6.10;5.00;;;;;;;;;;5027760;28;20049;-70
2023/08/10 13:10:15;;;;;;;6.07;4.53;;;;;;;;;;5029309;28;20468;-71
2023/08/10 13:12:43;;;;;;;9.73;5.40;;;;;;;;;;5025944;28;20046;-70
2023/08/10 13:15:09;;;;;;;8.98;5.05;;;;;;;;;;5029176;28;20049;-71
2023/08/10 13:17:35;;;;;;;7.30;5.32;;;;;;;;;;5027589;28;20124;-71
2023/08/10 13:20:03;;;;;;;9.75;4.85;;;;;;;;;;5026459;28;20120;-71
2023/08/10 13:22:33;;;;;;;7.30;5.20;;;;;;;;;;5011162;28;20056;-71
2023/08/10 13:24:59;;;;;;;9.30;6.07;;;;;;;;;;5029558;28;20041;-71
2023/08/10 13:27:25;;;;;;;10.18;7.20;;;;;;;;;;5008882;28;20048;-70
2023/08/10 13:29:52;;;;;;;5.90;5.30;;;;;;;;;;5009538;28;20050;-70
2023/08/10 13:32:19;;;;;;;9.63;4.78;;;;;;;;;;5011067;28;20049;-71
2023/08/10 13:34:45;;;;;;;10.27;5.10;;;;;;;;;;5027752;28;20473;-71
2023/08/10 13:37:12;;;;;;;7.80;5.13;;;;;;;;;;5029090;28;20114;-71
2023/08/10 13:39:38;;;;;;;7.15;5.00;;;;;;;;;;5009228;28;20053;-71
2023/08/10 13:42:04;;;;;;;7.88;5.13;;;;;;;;;;5010136;28;20061;-71
2023/08/10 13:44:30;;;;;;;6.72;4.78;;;;;;;;;;5025570;28;20049;-70
2023/08/10 13:46:56;;;;;;;8.75;4.82;;;;;;;;;;5010200;28;20461;-71
2023/08/10 13:49:24;;;;;;;7.18;4.50;;;;;;;;;;5028051;28;20090;-71
2023/08/10 13:51:50;;;;;;;7.60;4.28;;;;;;;;;;5010578;28;20049;-70
2023/08/10 13:54:16;;;;;;;5.88;4.38;;;;;;;;;;5008961;28;20049;-70
2023/08/10 13:56:57;;;;;;;5.78;4.53;;;;;;;;;;5001189;28;20086;-71
2023/08/10 13:59:24;;;;;;;5.07;4.00;;;;;;;;;;5011080;28;20054;-71
2023/08/10 14:01:51;;;;;;;4.75;4.07;;;;;;;;;;5010668;28;20515;-71
2023/08/10 14:04:17;;;;;;;7.03;4.25;;;;;;;;;;5040315;27;20055;-71
2023/08/10 14:06:43;;;;;;;4.90;3.60;;;;;;;;;;5117581;27;20088;-70
2023/08/10 14:09:10;;;;;;;5.35;3.65;;;;;;;;;;5066273;27;20049;-70
2023/08/10 14:11:37;;;;;;;5.68;3.45;;;;;;;;;;4994259;28;20065;-70
2023/08/10 14:14:03;;;;;;;4.55;3.55;;;;;;;;;;4994299;28;20193;-71
2023/08/10 14:16:29;;;;;;;6.07;3.78;;;;;;;;;;5018823;28;20038;-71
2023/08/10 14:18:56;;;;;;;6.28;3.63;;;;;;;;;;5042474;27;20050;-70
2023/08/10 14:21:22;;;;;;;6.57;3.13;;;;;;;;;;5029561;28;20054;-70
2023/08/10 14:23:48;;;;;;;3.80;3.00;;;;;;;;;;5095920;27;20047;-70